Terminal Aerodrome Forecast
Issued by NWS

Home | Current Version | Previous Version | Graphics & Text | Print | Product List | Glossary On
Versions: 1 2 3 4 5 6 7 8 9 10 11 12 13 14 15 16
394
FTUS43 KUNR 201534 AAA
TAFGCC
TAF AMD
KGCC 201534Z 2016/2112 17015G25KT P6SM BKN200
     FM210000 18015KT P6SM VCTS BKN080CB
     FM210500 23009KT P6SM SCT100=

USA.gov is the U.S. government's official web portal to all federal, state and local government web resources and services.